Airport View

Enter AWOS ICAO identifier for current METAR.

ex. KFNL

KJZI 101515Z AUTO 18005KT 10SM CLR 30/24 A3011 RMK AO2

10 Aug 2020 15:23

Frequency: 123.775

Phone: 843-559-3123

Other Area AWOS: KCHS - KLRO - KDYB - KMKS

TAF KCHS 101125Z 1012/1112 26004KT P6SM BKN250 FM101700 22006KT P6SM SCT040 BKN250 FM102000 18009KT P6SM SCT040 BKN150 FM110200 22004KT P6SM SCT150 BKN250